Impacts METAR Board
IDs:

KCVG - Cincinnati Intl, KY, US

Updated at: 0500 UTC 10 Dec 2018
Potential Impact None Slight Moderate High
Time 09/17Z 09/18Z 09/19Z 09/20Z 09/21Z 09/22Z 09/23Z 10/00Z 10/01Z 10/02Z 10/03Z 10/04Z 10/05Z
Temp32 35 37 38 38 37 33 30 29 28 26 26 25
Dewpt19 19 20 20 21 19 18 16 18 18 18 17 18
Altim30.25 30.23 30.21 30.19 30.18 30.19 30.19 30.19 30.20 30.20 30.21 30.20 30.20
VIS9 10 10 10 10 10 10 10 10 10 10 10 10
CIG200 250 -- 250 250 -- -- -- -- -- -- -- --
CoverBKNBKNSCTBKNBKNSCTSCTSCTSCTSCTSCTFEWFEW
FltCatVFRVFRVFRVFRVFRVFRVFRVFRVFRVFRVFRVFRVFR
WX--------------------------
WDir303040204040301010360101010
WSpd8 8 8 10 8 9 6 8 8 9 8 9 11
WGst-- -- -- -- -- -- -- -- -- -- -- -- --
Raw hourly METARs
KCVG 091652Z 03008KT 9SM BKN200 BKN250 00/M07 A3025 RMK AO2 SLP252 T00001072
KCVG 091752Z 03008KT 10SM FEW150 SCT200 BKN250 02/M07 A3023 RMK AO2 SLP244 T00171072 10017 21033 58012
KCVG 091852Z 04008KT 10SM FEW150 SCT200 SCT250 03/M07 A3021 RMK AO2 SLP235 T00281067
KCVG 091952Z 02010KT 10SM SCT150 SCT200 BKN250 03/M07 A3019 RMK AO2 SLP229 T00331067
KCVG 092052Z 04008KT 10SM SCT200 BKN250 03/M06 A3018 RMK AO2 SLP227 T00331061 56015
KCVG 092152Z 04009KT 10SM SCT250 03/M07 A3019 RMK AO2 SLP230 T00281072
KCVG 092252Z 03006KT 10SM SCT250 01/M08 A3019 RMK AO2 SLP229 T00061078
KCVG 092352Z 01008KT 10SM SCT250 M01/M09 A3019 RMK AO2 SLP231 T10111089 10039 21011 51002
KCVG 100052Z 01008KT 10SM SCT250 M02/M08 A3020 RMK AO2 SLP233 T10171078
KCVG 100152Z 36009KT 10SM SCT250 M02/M08 A3020 RMK AO2 SLP235 T10221078
KCVG 100252Z 01008KT 10SM SCT250 M03/M08 A3021 RMK AO2 SLP236 T10331078 52005
KCVG 100352Z 01009KT 10SM FEW250 M03/M08 A3020 RMK AO2 SLP235 T10331083
KCVG 100452Z 01011KT 10SM FEW250 M04/M08 A3020 RMK AO2 SLP235 T10391078 400391039



Page loaded:  05:26 UTC  |   09:26 PM Pacific  |   10:26 PM Mountain  |   11:26 PM Central  |   12:26 AM Eastern

 

ADVISORIES

FORECASTS

FORECASTS

OBSERVATIONS

USER TOOLS

ABOUT US